createdAt,value
2019-03-12T00:00:38.237Z,15.27
2019-03-12T00:03:11.078Z,21.30
2019-03-12T00:05:43.999Z,22.23
2019-03-12T00:08:16.899Z,13.27
2019-03-12T00:10:50.014Z,13.13
2019-03-12T00:13:22.962Z,22.53
2019-03-12T00:15:56.250Z,18.77
2019-03-12T00:18:29.321Z,26.30
2019-03-12T00:21:03.201Z,20.23
2019-03-12T00:23:36.114Z,19.67
2019-03-12T00:26:09.103Z,16.77
2019-03-12T00:28:41.942Z,20.60
2019-03-12T00:31:15.173Z,28.63
2019-03-12T00:33:48.070Z,18.97
2019-03-12T00:36:21.000Z,19.40
2019-03-12T00:38:53.774Z,22.30
2019-03-12T00:41:26.579Z,18.93
2019-03-12T00:43:59.520Z,17.83
2019-03-12T00:46:32.570Z,22.33
2019-03-12T00:49:05.332Z,20.67
2019-03-12T00:51:38.280Z,20.00
2019-03-12T00:54:11.292Z,22.77
2019-03-12T00:56:44.100Z,17.63
2019-03-12T00:59:17.460Z,27.57
2019-03-12T01:01:50.342Z,30.80
2019-03-12T01:04:23.188Z,26.50
2019-03-12T01:06:56.077Z,24.00
2019-03-12T01:09:29.030Z,24.57
2019-03-12T01:12:02.202Z,23.17
2019-03-12T01:14:35.005Z,17.03
2019-03-12T01:17:07.766Z,22.97
2019-03-12T01:19:40.577Z,22.43
2019-03-12T01:22:13.680Z,17.70
2019-03-12T01:24:46.491Z,23.80
2019-03-12T01:27:19.496Z,25.50
2019-03-12T01:29:52.507Z,25.03
2019-03-12T01:32:25.412Z,39.07
2019-03-12T01:34:58.256Z,30.10
2019-03-12T01:37:32.590Z,34.50
2019-03-12T01:40:07.665Z,66.10
2019-03-12T01:42:40.592Z,41.40
2019-03-12T01:45:15.488Z,17.73
2019-03-12T01:47:48.397Z,27.70
2019-03-12T01:50:21.762Z,18.10
2019-03-12T01:52:54.646Z,60.43
2019-03-12T01:55:27.421Z,53.67
2019-03-12T01:58:00.384Z,47.43
2019-03-12T02:00:34.471Z,26.40
2019-03-12T02:03:08.458Z,26.17
2019-03-12T02:05:41.221Z,23.57
2019-03-12T02:08:14.301Z,28.57
2019-03-12T02:10:47.422Z,22.43
2019-03-12T02:13:20.456Z,23.97
2019-03-12T02:15:53.379Z,22.00
2019-03-12T02:18:26.159Z,29.47
2019-03-12T02:20:59.215Z,21.20
2019-03-12T02:23:32.253Z,23.17
2019-03-12T02:26:06.478Z,28.23
2019-03-12T02:28:39.751Z,26.53
2019-03-12T02:31:12.517Z,26.03
2019-03-12T02:33:45.464Z,28.97
2019-03-12T02:36:18.652Z,30.23
2019-03-12T02:38:51.452Z,30.07
2019-03-12T02:41:24.509Z,137.47
2019-03-12T02:43:57.496Z,150.00
2019-03-12T02:46:30.338Z,84.93
2019-03-12T02:49:03.528Z,27.63
2019-03-12T02:51:36.376Z,29.77
2019-03-12T02:54:09.438Z,33.67
2019-03-12T02:56:42.228Z,25.23
2019-03-12T02:59:15.113Z,29.53
2019-03-12T03:01:48.107Z,24.93
2019-03-12T03:04:21.123Z,24.60
2019-03-12T03:07:02.074Z,34.63
2019-03-12T03:09:35.059Z,35.30
2019-03-12T03:12:07.808Z,37.50
2019-03-12T03:14:40.791Z,34.17
2019-03-12T03:17:15.575Z,29.00
2019-03-12T03:19:48.557Z,25.43
2019-03-12T03:22:21.537Z,24.67
2019-03-12T03:24:54.723Z,21.77
2019-03-12T03:27:29.289Z,17.87
2019-03-12T03:30:02.445Z,16.63
2019-03-12T03:32:35.715Z,25.27
2019-03-12T03:35:08.714Z,17.67
2019-03-12T03:37:41.462Z,14.67
2019-03-12T03:40:17.883Z,11.97
2019-03-12T03:42:50.787Z,14.20
2019-03-12T03:45:23.746Z,12.63
2019-03-12T03:47:56.648Z,16.63
2019-03-12T03:50:29.701Z,19.13
2019-03-12T03:53:02.777Z,11.80
2019-03-12T03:55:35.691Z,17.27
2019-03-12T03:58:08.427Z,20.03
2019-03-12T04:00:41.249Z,14.03
2019-03-12T04:03:14.354Z,24.20
2019-03-12T04:05:47.558Z,16.27
2019-03-12T04:08:20.629Z,20.43
2019-03-12T04:10:53.492Z,15.53
2019-03-12T04:13:26.503Z,20.80
2019-03-12T04:15:59.304Z,18.27
2019-03-12T04:18:32.290Z,18.37
2019-03-12T04:21:05.259Z,18.07
2019-03-12T04:23:38.320Z,15.07
2019-03-12T04:26:11.443Z,14.10
2019-03-12T04:28:44.587Z,13.37
2019-03-12T04:31:17.393Z,15.97
2019-03-12T04:34:14.230Z,15.27
2019-03-12T04:36:49.354Z,17.03
2019-03-12T04:39:22.379Z,15.90
2019-03-12T04:41:55.342Z,15.77
2019-03-12T04:44:28.258Z,14.10
2019-03-12T04:47:01.065Z,15.83
2019-03-12T04:49:33.849Z,18.60
2019-03-12T04:52:06.904Z,20.63
2019-03-12T04:54:39.763Z,13.73
2019-03-12T04:57:12.688Z,14.03
2019-03-12T04:59:45.699Z,12.77
2019-03-12T05:02:18.442Z,15.30
2019-03-12T05:04:51.273Z,16.40
2019-03-12T05:07:24.220Z,14.97
2019-03-12T05:09:57.098Z,14.53
2019-03-12T05:12:30.750Z,11.10
2019-03-12T05:15:07.173Z,18.07
2019-03-12T05:17:40.674Z,13.10
2019-03-12T05:20:14.982Z,12.73
2019-03-12T05:22:48.083Z,12.17
2019-03-12T05:25:21.098Z,14.60
2019-03-12T05:27:53.925Z,12.03
2019-03-12T05:30:26.949Z,33.47
2019-03-12T05:32:59.905Z,20.70
2019-03-12T05:35:32.739Z,12.27
2019-03-12T05:38:05.681Z,12.27
2019-03-12T05:40:38.476Z,18.30
2019-03-12T05:43:11.375Z,11.70
2019-03-12T05:45:44.268Z,18.07
2019-03-12T05:48:17.454Z,13.80
2019-03-12T05:50:50.358Z,16.93
2019-03-12T05:53:29.139Z,13.37
2019-03-12T05:56:02.046Z,18.23
2019-03-12T05:58:34.880Z,20.00
2019-03-12T06:01:07.937Z,19.17
2019-03-12T06:03:40.936Z,18.93
2019-03-12T06:06:13.743Z,19.13
2019-03-12T06:08:46.995Z,8.47
2019-03-12T06:11:20.044Z,12.77
2019-03-12T06:13:53.305Z,15.70
2019-03-12T06:16:26.514Z,18.43
2019-03-12T06:18:59.316Z,15.37
2019-03-12T06:21:32.347Z,15.83
2019-03-12T06:24:05.575Z,11.07
2019-03-12T06:26:38.571Z,18.83
2019-03-12T06:29:11.522Z,17.23
2019-03-12T06:32:04.171Z,13.57
2019-03-12T06:34:50.637Z,12.40
2019-03-12T06:37:32.001Z,9.80
2019-03-12T06:40:34.321Z,20.37
2019-03-12T06:43:12.966Z,8.87
2019-03-12T06:46:23.756Z,14.40
2019-03-12T06:49:10.497Z,10.17
2019-03-12T06:52:09.141Z,14.47
2019-03-12T06:55:20.036Z,12.43
2019-03-12T06:58:34.564Z,10.13
2019-03-12T07:01:29.519Z,17.53
2019-03-12T07:04:21.939Z,13.10
2019-03-12T07:07:20.383Z,14.67
2019-03-12T07:10:12.749Z,15.60
2019-03-12T07:12:59.541Z,18.07
2019-03-12T07:16:04.993Z,14.43
2019-03-12T07:19:12.745Z,25.17
2019-03-12T07:22:04.171Z,15.73
2019-03-12T07:24:55.783Z,9.13
2019-03-12T07:27:48.350Z,11.43
2019-03-12T07:30:40.087Z,15.60
2019-03-12T07:33:28.132Z,16.83
2019-03-12T07:36:19.061Z,17.43
2019-03-12T07:39:10.100Z,18.83
2019-03-12T07:41:59.687Z,17.67
2019-03-12T07:45:04.211Z,11.67
2019-03-12T07:47:58.997Z,11.53
2019-03-12T07:51:00.074Z,17.37
2019-03-12T07:54:07.487Z,13.48
2019-03-12T07:57:08.888Z,18.23
2019-03-12T08:00:09.880Z,18.67
2019-03-12T08:03:00.566Z,14.83
2019-03-12T08:05:39.107Z,22.00
2019-03-12T08:08:18.486Z,17.23
2019-03-12T08:11:11.063Z,23.67
2019-03-12T08:14:06.307Z,15.33
2019-03-12T08:17:14.250Z,18.27
2019-03-12T08:20:15.882Z,17.70
2019-03-12T08:23:08.318Z,19.07
2019-03-12T08:26:06.714Z,25.63
2019-03-12T08:28:57.738Z,17.03
2019-03-12T08:35:11.941Z,12.73
2019-03-12T08:38:08.116Z,15.87
2019-03-12T08:40:52.729Z,18.63
2019-03-12T08:43:37.222Z,17.90
2019-03-12T08:46:30.176Z,20.70
2019-03-12T08:49:12.796Z,16.07
2019-03-12T08:52:04.294Z,20.50
2019-03-12T08:55:06.081Z,21.20
2019-03-12T08:57:57.426Z,11.77
2019-03-12T09:00:48.481Z,20.37
2019-03-12T09:03:47.748Z,14.33
2019-03-12T09:06:39.515Z,14.93
2019-03-12T09:09:27.969Z,10.67
2019-03-12T09:12:26.283Z,13.53
2019-03-12T09:15:21.462Z,13.10
2019-03-12T09:18:12.644Z,11.73
2019-03-12T09:21:14.044Z,15.43
2019-03-12T09:24:09.303Z,14.77
2019-03-12T09:27:13.831Z,19.40
2019-03-12T09:30:09.093Z,13.73
2019-03-12T09:33:07.887Z,17.97
2019-03-12T09:36:02.867Z,14.07
2019-03-12T09:38:55.255Z,25.80
2019-03-12T09:41:43.274Z,17.83
2019-03-12T09:44:34.459Z,17.53
2019-03-12T09:47:14.506Z,11.93
2019-03-12T09:50:04.505Z,17.00
2019-03-12T09:52:53.918Z,10.80
2019-03-12T09:55:49.174Z,11.70
2019-03-12T09:58:38.969Z,11.73
2019-03-12T10:01:31.352Z,13.70
2019-03-12T10:04:13.972Z,17.13
2019-03-12T10:07:09.189Z,11.30
2019-03-12T10:09:54.083Z,14.47
2019-03-12T10:12:49.423Z,15.37
2019-03-12T10:15:44.924Z,15.20
2019-03-12T10:18:46.679Z,15.87
2019-03-12T10:21:42.073Z,20.67
2019-03-12T10:24:43.628Z,14.07
2019-03-12T10:27:31.619Z,15.63
2019-03-12T10:30:24.178Z,14.20
2019-03-12T10:33:13.243Z,11.48
2019-03-12T10:35:55.841Z,16.37
2019-03-12T10:39:13.640Z,17.90
2019-03-12T10:41:58.263Z,14.33
2019-03-12T10:44:50.773Z,10.23
2019-03-12T10:47:24.394Z,14.50
2019-03-12T10:49:57.418Z,15.90
2019-03-12T10:52:30.423Z,14.00
2019-03-12T10:55:12.867Z,7.53
2019-03-12T10:57:38.679Z,16.23
2019-03-12T11:00:12.254Z,12.33
2019-03-12T11:02:45.658Z,9.43
2019-03-12T11:05:18.913Z,12.60
2019-03-12T11:07:51.943Z,15.63
2019-03-12T11:10:25.000Z,18.60
2019-03-12T11:12:58.030Z,11.93
2019-03-12T11:15:30.945Z,11.77
2019-03-12T11:18:03.870Z,10.83
2019-03-12T11:20:36.668Z,6.90
2019-03-12T11:23:09.865Z,8.43
2019-03-12T11:25:42.733Z,10.83
2019-03-12T11:28:15.822Z,11.13
2019-03-12T11:30:48.956Z,11.60
2019-03-12T11:33:21.976Z,14.03
2019-03-12T11:35:55.174Z,11.10
2019-03-12T11:38:28.241Z,14.67
2019-03-12T11:41:01.791Z,14.63
2019-03-12T11:43:34.842Z,12.33
2019-03-12T11:46:08.123Z,6.87
2019-03-12T11:48:41.471Z,9.00
2019-03-12T11:51:14.300Z,11.07
2019-03-12T11:53:47.936Z,10.00
2019-03-12T11:56:21.136Z,7.50
2019-03-12T11:58:54.319Z,13.30
2019-03-12T12:01:27.164Z,9.67
2019-03-12T12:04:00.233Z,9.47
2019-03-12T12:06:33.215Z,13.13
2019-03-12T12:09:06.837Z,11.48
2019-03-12T12:11:41.701Z,6.62
2019-03-12T12:14:14.649Z,9.80
2019-03-12T12:16:47.877Z,16.93
2019-03-12T12:19:20.835Z,11.95
2019-03-12T12:22:13.081Z,8.50
2019-03-12T12:24:46.107Z,7.92
2019-03-12T12:27:20.055Z,8.50
2019-03-12T12:29:53.955Z,6.30
2019-03-12T12:32:26.899Z,15.37
2019-03-12T12:34:59.851Z,11.50
2019-03-12T12:37:32.761Z,10.80
2019-03-12T12:40:07.541Z,11.67
2019-03-12T12:42:40.805Z,10.97
2019-03-12T12:45:17.745Z,8.83
2019-03-12T12:47:50.797Z,9.13
2019-03-12T12:50:23.994Z,11.20
2019-03-12T12:52:56.992Z,10.70
2019-03-12T12:55:29.780Z,12.35
2019-03-12T12:58:02.981Z,6.83
2019-03-12T13:00:38.303Z,4.15
2019-03-12T13:03:11.093Z,12.25
2019-03-12T13:05:44.160Z,8.93
2019-03-12T13:08:17.187Z,10.23
2019-03-12T13:10:50.313Z,10.93
2019-03-12T13:13:23.266Z,11.00
2019-03-12T13:15:56.495Z,7.72
2019-03-12T13:18:29.478Z,11.63
2019-03-12T13:21:02.725Z,9.20
2019-03-12T13:23:36.216Z,7.58
2019-03-12T13:26:09.277Z,8.33
2019-03-12T13:28:44.878Z,11.05
2019-03-12T13:31:17.076Z,8.30
2019-03-12T13:33:50.320Z,9.75
2019-03-12T13:36:23.345Z,11.78
2019-03-12T13:38:56.202Z,7.90
2019-03-12T13:41:29.411Z,13.62
2019-03-12T13:44:02.396Z,11.00
2019-03-12T13:46:35.602Z,9.35
2019-03-12T13:49:08.742Z,5.47
2019-03-12T13:51:41.743Z,9.83
2019-03-12T13:54:14.766Z,8.13
2019-03-12T13:56:47.860Z,11.28
2019-03-12T13:59:21.200Z,8.80
2019-03-12T14:01:54.446Z,7.17
2019-03-12T14:04:27.705Z,7.35
2019-03-12T14:07:00.748Z,8.60
2019-03-12T14:09:33.707Z,8.48
2019-03-12T14:12:06.981Z,4.73
2019-03-12T14:14:40.470Z,7.05
2019-03-12T14:17:13.670Z,10.00
2019-03-12T14:19:47.077Z,7.55
2019-03-12T14:22:20.283Z,4.47
2019-03-12T14:24:53.461Z,8.63
2019-03-12T14:27:26.626Z,4.10
2019-03-12T14:29:59.603Z,7.37
2019-03-12T14:32:32.783Z,4.70
2019-03-12T14:35:05.713Z,8.17
2019-03-12T14:37:38.913Z,7.13
2019-03-12T14:40:11.822Z,7.00
2019-03-12T14:42:44.867Z,5.00
2019-03-12T14:45:24.787Z,10.93
2019-03-12T14:47:57.814Z,7.97
2019-03-12T14:50:30.906Z,6.50
2019-03-12T14:53:07.437Z,9.33
2019-03-12T14:55:41.304Z,8.63
2019-03-12T14:58:14.072Z,10.77
2019-03-12T15:00:47.194Z,6.83
2019-03-12T15:03:21.057Z,6.40
2019-03-12T15:05:54.162Z,7.30
2019-03-12T15:08:27.135Z,12.40
2019-03-12T15:11:00.218Z,6.63
2019-03-12T15:13:33.533Z,6.17
2019-03-12T15:16:06.978Z,8.70
2019-03-12T15:18:39.842Z,8.27
2019-03-12T15:21:12.736Z,6.23
2019-03-12T15:23:45.690Z,12.57
2019-03-12T15:26:18.835Z,5.17
2019-03-12T15:28:52.837Z,9.67
2019-03-12T15:31:25.851Z,7.90
2019-03-12T15:33:58.942Z,7.20
2019-03-12T15:36:31.932Z,6.87
2019-03-12T15:39:08.108Z,6.00
2019-03-12T15:41:42.740Z,6.33
2019-03-12T15:44:18.942Z,7.30
2019-03-12T15:46:50.705Z,7.07
2019-03-12T15:49:23.611Z,5.57
2019-03-12T15:51:56.798Z,5.43
2019-03-12T15:54:29.709Z,9.37
2019-03-12T15:57:03.179Z,5.23
2019-03-12T15:59:36.357Z,4.23
2019-03-12T16:02:09.399Z,8.33
2019-03-12T16:04:42.615Z,6.97
2019-03-12T16:07:15.508Z,5.67
2019-03-12T16:09:48.589Z,3.67
2019-03-12T16:12:23.358Z,8.47
2019-03-12T16:14:56.566Z,6.97
2019-03-12T16:17:29.921Z,7.37
2019-03-12T16:20:03.525Z,3.57
2019-03-12T16:22:36.460Z,4.10
2019-03-12T16:25:09.808Z,5.80
2019-03-12T16:27:42.840Z,11.77
2019-03-12T16:30:15.987Z,4.67
2019-03-12T16:32:48.864Z,5.77
2019-03-12T16:35:22.069Z,4.00
2019-03-12T16:37:55.072Z,4.93
2019-03-12T16:40:28.146Z,5.73
2019-03-12T16:43:00.989Z,4.57
2019-03-12T16:45:34.079Z,9.40
2019-03-12T16:48:07.154Z,7.27
2019-03-12T16:50:40.080Z,7.37
2019-03-12T16:53:13.067Z,3.03
2019-03-12T16:55:46.068Z,3.83
2019-03-12T16:58:18.873Z,6.27
2019-03-12T17:00:51.785Z,4.67
2019-03-12T17:03:24.850Z,5.77
2019-03-12T17:05:57.948Z,5.67
2019-03-12T17:08:30.884Z,4.70
2019-03-12T17:11:03.885Z,6.00
2019-03-12T17:13:39.365Z,6.53
2019-03-12T17:16:13.323Z,4.83
2019-03-12T17:18:46.424Z,4.30
2019-03-12T17:21:19.289Z,7.47
2019-03-12T17:23:52.082Z,7.37
2019-03-12T17:26:25.361Z,5.80
2019-03-12T17:28:58.285Z,6.77
2019-03-12T17:31:31.548Z,3.23
2019-03-12T17:34:04.452Z,5.60
2019-03-12T17:36:37.496Z,7.53
2019-03-12T17:39:10.532Z,4.37
2019-03-12T17:41:44.595Z,3.73
2019-03-12T17:44:17.667Z,3.37
2019-03-12T17:46:50.770Z,12.63
2019-03-12T17:49:23.985Z,6.30
2019-03-12T17:51:56.865Z,8.77
2019-03-12T17:54:32.035Z,7.33
2019-03-12T17:57:04.749Z,6.03
2019-03-12T17:59:38.708Z,7.23
2019-03-12T18:02:11.936Z,6.23
2019-03-12T18:04:45.051Z,5.57
2019-03-12T18:07:18.197Z,5.27
2019-03-12T18:09:51.183Z,6.73
2019-03-12T18:12:24.031Z,7.60
2019-03-12T18:14:57.254Z,4.93
2019-03-12T18:17:30.276Z,6.20
2019-03-12T18:20:04.151Z,8.03
2019-03-12T18:22:39.086Z,3.17
2019-03-12T18:25:15.051Z,5.97
2019-03-12T18:27:48.343Z,5.33
2019-03-12T18:30:21.436Z,8.07
2019-03-12T18:32:54.467Z,5.47
2019-03-12T18:35:27.766Z,2.83
2019-03-12T18:38:00.796Z,5.50
2019-03-12T18:40:33.994Z,6.73
2019-03-12T18:43:07.002Z,6.03
2019-03-12T18:45:39.881Z,4.20
2019-03-12T18:48:13.016Z,3.93
2019-03-12T18:50:46.036Z,3.93
2019-03-12T18:53:19.283Z,5.73
2019-03-12T18:56:03.337Z,4.43
2019-03-12T18:58:36.392Z,6.27
2019-03-12T19:01:16.492Z,3.93
2019-03-12T19:03:49.567Z,5.70
2019-03-12T19:06:22.310Z,3.13
2019-03-12T19:08:56.847Z,7.70
2019-03-12T19:11:32.300Z,5.27
2019-03-12T19:14:04.872Z,6.57
2019-03-12T19:16:37.951Z,6.20
2019-03-12T19:19:10.941Z,5.53
2019-03-12T19:21:44.040Z,8.23
2019-03-12T19:24:17.115Z,7.17
2019-03-12T19:26:50.256Z,5.63
2019-03-12T19:29:23.401Z,3.73
2019-03-12T19:32:06.606Z,7.07
2019-03-12T19:34:39.549Z,3.57
2019-03-12T19:37:13.866Z,6.20
2019-03-12T19:39:46.801Z,7.00
2019-03-12T19:42:19.827Z,9.17
2019-03-12T19:44:52.778Z,7.50
2019-03-12T19:47:26.053Z,4.57
2019-03-12T19:49:59.108Z,8.37
2019-03-12T19:52:32.154Z,6.13
2019-03-12T19:55:06.366Z,6.00
2019-03-12T19:57:39.497Z,7.47
2019-03-12T20:00:15.120Z,6.17
2019-03-12T20:02:48.597Z,7.83
2019-03-12T20:05:21.664Z,5.73
2019-03-12T20:07:54.586Z,6.10
2019-03-12T20:11:01.296Z,7.30
2019-03-12T20:14:21.543Z,4.63
2019-03-12T20:17:38.553Z,6.67
2019-03-12T20:20:54.990Z,4.03
2019-03-12T20:23:52.602Z,5.57
2019-03-12T20:27:07.151Z,5.77
2019-03-12T20:30:37.274Z,4.27
2019-03-12T20:33:57.293Z,11.33
2019-03-12T20:37:17.163Z,11.23
2019-03-12T20:40:27.951Z,6.83
2019-03-12T20:43:51.628Z,5.43
2019-03-12T20:47:18.521Z,7.27
2019-03-12T20:50:28.033Z,7.20
2019-03-12T20:53:45.034Z,6.10
2019-03-12T20:57:04.695Z,7.90
2019-03-12T21:00:09.903Z,4.80
2019-03-12T21:03:25.142Z,4.37
2019-03-12T21:06:53.476Z,4.83
2019-03-12T21:10:01.022Z,6.43
2019-03-12T21:13:20.628Z,8.37
2019-03-12T21:16:43.533Z,7.63
2019-03-12T21:19:52.906Z,6.20
2019-03-12T21:23:14.263Z,7.67
2019-03-12T21:26:21.248Z,6.00
2019-03-12T21:29:41.773Z,5.03
2019-03-12T21:32:16.710Z,5.93
2019-03-12T21:34:49.789Z,7.13
2019-03-12T21:37:24.776Z,9.03
2019-03-12T21:39:57.577Z,5.67
2019-03-12T21:42:30.510Z,6.03
2019-03-12T21:45:03.913Z,2.23
2019-03-12T21:47:37.306Z,5.87
2019-03-12T21:50:10.395Z,2.57
2019-03-12T21:52:43.373Z,1.47
2019-03-12T21:55:16.333Z,2.73
2019-03-12T21:57:49.107Z,4.23
2019-03-12T22:00:22.367Z,2.40
2019-03-12T22:02:55.516Z,5.37
2019-03-12T22:05:28.296Z,3.40
2019-03-12T22:08:01.195Z,3.87
2019-03-12T22:10:33.913Z,3.77
2019-03-12T22:13:06.648Z,4.90
2019-03-12T22:15:40.133Z,4.53
2019-03-12T22:18:13.083Z,5.07
2019-03-12T22:20:46.312Z,5.20
2019-03-12T22:23:38.628Z,6.97
2019-03-12T22:26:11.754Z,8.13
2019-03-12T22:28:44.803Z,8.43
2019-03-12T22:31:17.763Z,9.07
2019-03-12T22:33:50.674Z,9.30
2019-03-12T22:36:23.673Z,9.20
2019-03-12T22:38:56.433Z,11.00
2019-03-12T22:41:29.501Z,8.87
2019-03-12T22:44:02.407Z,8.67
2019-03-12T22:46:35.499Z,8.83
2019-03-12T22:49:08.940Z,9.07
2019-03-12T22:51:42.641Z,8.30
2019-03-12T22:54:15.738Z,9.30
2019-03-12T22:56:48.663Z,9.80
2019-03-12T22:59:23.106Z,8.40
2019-03-12T23:02:14.452Z,8.13
2019-03-12T23:05:06.359Z,10.73
2019-03-12T23:07:57.763Z,10.93
2019-03-12T23:10:32.835Z,9.73
2019-03-12T23:13:06.098Z,14.33
2019-03-12T23:15:41.038Z,11.83
2019-03-12T23:18:14.053Z,12.17
2019-03-12T23:20:46.940Z,8.97
2019-03-12T23:23:20.580Z,10.40
2019-03-12T23:25:53.552Z,9.53
2019-03-12T23:28:26.589Z,8.37
2019-03-12T23:31:00.015Z,10.23
2019-03-12T23:33:33.158Z,11.40
2019-03-12T23:36:06.432Z,10.77
2019-03-12T23:38:39.406Z,11.57
2019-03-12T23:41:12.493Z,10.80
2019-03-12T23:43:45.631Z,12.90
2019-03-12T23:46:18.669Z,13.00
2019-03-12T23:48:51.690Z,12.03
2019-03-12T23:51:24.674Z,12.67
2019-03-12T23:53:57.675Z,17.97
2019-03-12T23:56:30.434Z,13.13
2019-03-12T23:59:03.695Z,15.57
